sensor_id;sensor_type;location;lat;lon;timestamp;temperature;humidity
20568;DHT22;10442;49.932;11.592;2022-11-15T00:01:48;10.60;73.50
20568;DHT22;10442;49.932;11.592;2022-11-15T00:04:33;10.70;73.50
20568;DHT22;10442;49.932;11.592;2022-11-15T00:07:19;10.70;73.40
20568;DHT22;10442;49.932;11.592;2022-11-15T00:10:25;10.70;73.30
20568;DHT22;10442;49.932;11.592;2022-11-15T00:13:12;10.70;73.30
20568;DHT22;10442;49.932;11.592;2022-11-15T00:16:00;10.80;73.30
20568;DHT22;10442;49.932;11.592;2022-11-15T00:18:46;10.80;73.20
20568;DHT22;10442;49.932;11.592;2022-11-15T00:21:35;10.80;73.20
20568;DHT22;10442;49.932;11.592;2022-11-15T00:24:21;10.80;73.10
20568;DHT22;10442;49.932;11.592;2022-11-15T00:27:07;10.80;73.10
20568;DHT22;10442;49.932;11.592;2022-11-15T00:29:53;10.80;73.20
20568;DHT22;10442;49.932;11.592;2022-11-15T00:32:39;10.80;73.10
20568;DHT22;10442;49.932;11.592;2022-11-15T00:35:25;10.80;73.10
20568;DHT22;10442;49.932;11.592;2022-11-15T00:38:11;10.80;73.10
20568;DHT22;10442;49.932;11.592;2022-11-15T00:40:56;10.70;72.90
20568;DHT22;10442;49.932;11.592;2022-11-15T00:43:42;10.80;72.90
20568;DHT22;10442;49.932;11.592;2022-11-15T00:46:30;10.80;72.90
20568;DHT22;10442;49.932;11.592;2022-11-15T00:49:15;10.70;72.70
20568;DHT22;10442;49.932;11.592;2022-11-15T00:52:01;10.70;72.50
20568;DHT22;10442;49.932;11.592;2022-11-15T00:54:47;10.70;72.50
20568;DHT22;10442;49.932;11.592;2022-11-15T00:57:33;10.60;72.50
20568;DHT22;10442;49.932;11.592;2022-11-15T01:00:19;10.60;72.50
20568;DHT22;10442;49.932;11.592;2022-11-15T01:03:04;10.60;72.70
20568;DHT22;10442;49.932;11.592;2022-11-15T01:05:51;10.60;72.80
20568;DHT22;10442;49.932;11.592;2022-11-15T01:08:38;10.50;72.90
20568;DHT22;10442;49.932;11.592;2022-11-15T01:11:24;10.50;73.00
20568;DHT22;10442;49.932;11.592;2022-11-15T01:14:10;10.50;73.10
20568;DHT22;10442;49.932;11.592;2022-11-15T01:16:56;10.50;73.10
20568;DHT22;10442;49.932;11.592;2022-11-15T01:19:42;10.50;73.20
20568;DHT22;10442;49.932;11.592;2022-11-15T01:22:28;10.50;73.20
20568;DHT22;10442;49.932;11.592;2022-11-15T01:25:14;10.50;73.20
20568;DHT22;10442;49.932;11.592;2022-11-15T01:28:00;10.60;73.20
20568;DHT22;10442;49.932;11.592;2022-11-15T01:30:45;10.60;73.20
20568;DHT22;10442;49.932;11.592;2022-11-15T01:33:34;10.60;73.10
20568;DHT22;10442;49.932;11.592;2022-11-15T01:36:22;10.60;73.10
20568;DHT22;10442;49.932;11.592;2022-11-15T01:39:08;10.50;73.00
20568;DHT22;10442;49.932;11.592;2022-11-15T01:41:55;10.50;73.00
20568;DHT22;10442;49.932;11.592;2022-11-15T01:44:47;10.50;72.90
20568;DHT22;10442;49.932;11.592;2022-11-15T01:47:44;10.50;72.90
20568;DHT22;10442;49.932;11.592;2022-11-15T01:50:32;10.40;72.90
20568;DHT22;10442;49.932;11.592;2022-11-15T01:53:20;10.40;72.90
20568;DHT22;10442;49.932;11.592;2022-11-15T01:56:11;10.30;72.90
20568;DHT22;10442;49.932;11.592;2022-11-15T01:59:00;10.20;73.00
20568;DHT22;10442;49.932;11.592;2022-11-15T02:01:48;10.20;73.10
20568;DHT22;10442;49.932;11.592;2022-11-15T02:04:45;10.10;73.20
20568;DHT22;10442;49.932;11.592;2022-11-15T02:07:34;10.00;73.40
20568;DHT22;10442;49.932;11.592;2022-11-15T02:10:22;10.00;73.60
20568;DHT22;10442;49.932;11.592;2022-11-15T02:13:10;9.80;73.60
20568;DHT22;10442;49.932;11.592;2022-11-15T02:16:05;9.80;73.50
20568;DHT22;10442;49.932;11.592;2022-11-15T02:22:11;9.70;73.50
20568;DHT22;10442;49.932;11.592;2022-11-15T02:25:07;9.70;73.50
20568;DHT22;10442;49.932;11.592;2022-11-15T02:28:29;9.60;73.30
20568;DHT22;10442;49.932;11.592;2022-11-15T02:37:28;9.40;73.70
20568;DHT22;10442;49.932;11.592;2022-11-15T02:40:34;9.30;73.70
20568;DHT22;10442;49.932;11.592;2022-11-15T02:43:45;9.30;73.70
20568;DHT22;10442;49.932;11.592;2022-11-15T02:47:01;9.20;73.70
20568;DHT22;10442;49.932;11.592;2022-11-15T02:50:21;9.20;73.90
20568;DHT22;10442;49.932;11.592;2022-11-15T02:53:09;9.10;73.90
20568;DHT22;10442;49.932;11.592;2022-11-15T02:55:56;9.10;73.80
20568;DHT22;10442;49.932;11.592;2022-11-15T02:59:13;9.00;74.00
20568;DHT22;10442;49.932;11.592;2022-11-15T03:02:26;8.90;74.20
20568;DHT22;10442;49.932;11.592;2022-11-15T03:08:31;8.80;74.00
20568;DHT22;10442;49.932;11.592;2022-11-15T03:11:20;8.80;74.00
20568;DHT22;10442;49.932;11.592;2022-11-15T03:14:24;8.70;74.10
20568;DHT22;10442;49.932;11.592;2022-11-15T03:17:27;8.60;74.60
20568;DHT22;10442;49.932;11.592;2022-11-15T03:20:15;8.60;74.80
20568;DHT22;10442;49.932;11.592;2022-11-15T03:23:08;8.50;74.60
20568;DHT22;10442;49.932;11.592;2022-11-15T03:25:55;8.40;74.60
20568;DHT22;10442;49.932;11.592;2022-11-15T03:28:57;8.40;74.60
20568;DHT22;10442;49.932;11.592;2022-11-15T03:31:49;8.20;74.60
20568;DHT22;10442;49.932;11.592;2022-11-15T03:34:44;8.30;74.50
20568;DHT22;10442;49.932;11.592;2022-11-15T03:38:11;8.20;74.60
20568;DHT22;10442;49.932;11.592;2022-11-15T03:41:06;8.10;75.20
20568;DHT22;10442;49.932;11.592;2022-11-15T03:43:59;8.10;75.00
20568;DHT22;10442;49.932;11.592;2022-11-15T03:47:09;8.10;75.20
20568;DHT22;10442;49.932;11.592;2022-11-15T03:50:01;8.00;75.30
20568;DHT22;10442;49.932;11.592;2022-11-15T03:52:49;8.00;75.40
20568;DHT22;10442;49.932;11.592;2022-11-15T03:55:35;7.90;75.50
20568;DHT22;10442;49.932;11.592;2022-11-15T03:58:21;7.90;75.40
20568;DHT22;10442;49.932;11.592;2022-11-15T04:01:07;7.90;75.40
20568;DHT22;10442;49.932;11.592;2022-11-15T04:03:53;7.90;75.50
20568;DHT22;10442;49.932;11.592;2022-11-15T04:06:39;7.80;75.40
20568;DHT22;10442;49.932;11.592;2022-11-15T04:09:25;7.80;75.40
20568;DHT22;10442;49.932;11.592;2022-11-15T04:12:11;7.70;75.40
20568;DHT22;10442;49.932;11.592;2022-11-15T04:15:05;7.70;75.40
20568;DHT22;10442;49.932;11.592;2022-11-15T04:17:56;7.70;75.50
20568;DHT22;10442;49.932;11.592;2022-11-15T04:20:42;7.60;75.60
20568;DHT22;10442;49.932;11.592;2022-11-15T04:23:47;7.60;75.60
20568;DHT22;10442;49.932;11.592;2022-11-15T04:26:51;7.60;75.50
20568;DHT22;10442;49.932;11.592;2022-11-15T04:29:37;7.60;75.50
20568;DHT22;10442;49.932;11.592;2022-11-15T04:32:23;7.50;75.50
20568;DHT22;10442;49.932;11.592;2022-11-15T04:35:09;7.50;75.50
20568;DHT22;10442;49.932;11.592;2022-11-15T04:37:56;7.40;75.50
20568;DHT22;10442;49.932;11.592;2022-11-15T04:40:42;7.50;75.80
20568;DHT22;10442;49.932;11.592;2022-11-15T04:43:28;7.40;75.80
20568;DHT22;10442;49.932;11.592;2022-11-15T04:46:15;7.40;75.90
20568;DHT22;10442;49.932;11.592;2022-11-15T04:49:01;7.30;76.10
20568;DHT22;10442;49.932;11.592;2022-11-15T04:51:47;7.30;76.00
20568;DHT22;10442;49.932;11.592;2022-11-15T04:54:33;7.30;75.80
20568;DHT22;10442;49.932;11.592;2022-11-15T04:57:19;7.30;75.70
20568;DHT22;10442;49.932;11.592;2022-11-15T05:00:12;7.20;75.70
20568;DHT22;10442;49.932;11.592;2022-11-15T05:02:58;7.20;75.70
20568;DHT22;10442;49.932;11.592;2022-11-15T05:06:03;7.20;75.80
20568;DHT22;10442;49.932;11.592;2022-11-15T05:08:49;7.10;75.80
20568;DHT22;10442;49.932;11.592;2022-11-15T05:11:35;7.10;75.80
20568;DHT22;10442;49.932;11.592;2022-11-15T05:14:21;7.00;75.90
20568;DHT22;10442;49.932;11.592;2022-11-15T05:17:07;7.00;75.90
20568;DHT22;10442;49.932;11.592;2022-11-15T05:19:53;7.00;76.00
20568;DHT22;10442;49.932;11.592;2022-11-15T05:22:39;6.90;76.20
20568;DHT22;10442;49.932;11.592;2022-11-15T05:25:25;6.90;76.20
20568;DHT22;10442;49.932;11.592;2022-11-15T05:28:11;6.90;76.40
20568;DHT22;10442;49.932;11.592;2022-11-15T05:31:11;6.90;76.50
20568;DHT22;10442;49.932;11.592;2022-11-15T05:33:58;6.80;76.50
20568;DHT22;10442;49.932;11.592;2022-11-15T05:36:44;6.80;76.30
20568;DHT22;10442;49.932;11.592;2022-11-15T05:39:31;6.80;76.40
20568;DHT22;10442;49.932;11.592;2022-11-15T05:42:17;6.80;76.60
20568;DHT22;10442;49.932;11.592;2022-11-15T05:45:06;6.80;76.70
20568;DHT22;10442;49.932;11.592;2022-11-15T05:47:55;6.80;77.10
20568;DHT22;10442;49.932;11.592;2022-11-15T05:50:45;6.70;77.10
20568;DHT22;10442;49.932;11.592;2022-11-15T05:53:32;6.70;77.20
20568;DHT22;10442;49.932;11.592;2022-11-15T05:56:18;6.70;77.20
20568;DHT22;10442;49.932;11.592;2022-11-15T05:59:05;6.70;77.10
20568;DHT22;10442;49.932;11.592;2022-11-15T06:01:51;6.70;77.40
20568;DHT22;10442;49.932;11.592;2022-11-15T06:04:37;6.80;77.70
20568;DHT22;10442;49.932;11.592;2022-11-15T06:07:24;6.80;78.10
20568;DHT22;10442;49.932;11.592;2022-11-15T06:10:10;6.80;78.50
20568;DHT22;10442;49.932;11.592;2022-11-15T06:12:57;6.90;80.10
20568;DHT22;10442;49.932;11.592;2022-11-15T06:15:43;6.90;79.60
20568;DHT22;10442;49.932;11.592;2022-11-15T06:18:35;7.00;79.40
20568;DHT22;10442;49.932;11.592;2022-11-15T06:21:22;7.10;79.30
20568;DHT22;10442;49.932;11.592;2022-11-15T06:24:08;7.10;78.90
20568;DHT22;10442;49.932;11.592;2022-11-15T06:26:54;7.20;78.90
20568;DHT22;10442;49.932;11.592;2022-11-15T06:29:40;7.20;78.80
20568;DHT22;10442;49.932;11.592;2022-11-15T06:32:26;7.20;78.60
20568;DHT22;10442;49.932;11.592;2022-11-15T06:35:12;7.30;78.80
20568;DHT22;10442;49.932;11.592;2022-11-15T06:38:09;7.30;78.60
20568;DHT22;10442;49.932;11.592;2022-11-15T06:41:06;7.30;78.40
20568;DHT22;10442;49.932;11.592;2022-11-15T06:43:52;7.30;78.10
20568;DHT22;10442;49.932;11.592;2022-11-15T06:46:38;7.30;78.00
20568;DHT22;10442;49.932;11.592;2022-11-15T06:49:24;7.40;78.00
20568;DHT22;10442;49.932;11.592;2022-11-15T06:52:10;7.40;78.10
20568;DHT22;10442;49.932;11.592;2022-11-15T06:54:55;7.40;78.00
20568;DHT22;10442;49.932;11.592;2022-11-15T06:57:51;7.40;78.10
20568;DHT22;10442;49.932;11.592;2022-11-15T07:00:37;7.40;78.20
20568;DHT22;10442;49.932;11.592;2022-11-15T07:03:25;7.50;78.10
20568;DHT22;10442;49.932;11.592;2022-11-15T07:06:11;7.50;78.20
20568;DHT22;10442;49.932;11.592;2022-11-15T07:08:57;7.60;78.30
20568;DHT22;10442;49.932;11.592;2022-11-15T07:11:43;7.60;78.40
20568;DHT22;10442;49.932;11.592;2022-11-15T07:14:29;7.70;78.70
20568;DHT22;10442;49.932;11.592;2022-11-15T07:17:15;7.80;79.10
20568;DHT22;10442;49.932;11.592;2022-11-15T07:20:01;7.90;79.20
20568;DHT22;10442;49.932;11.592;2022-11-15T07:22:47;8.10;79.30
20568;DHT22;10442;49.932;11.592;2022-11-15T07:25:33;8.30;79.30
20568;DHT22;10442;49.932;11.592;2022-11-15T07:28:19;8.40;79.00
20568;DHT22;10442;49.932;11.592;2022-11-15T07:31:07;8.60;78.90
20568;DHT22;10442;49.932;11.592;2022-11-15T07:33:54;8.80;78.60
20568;DHT22;10442;49.932;11.592;2022-11-15T07:36:40;9.00;78.40
20568;DHT22;10442;49.932;11.592;2022-11-15T07:39:26;9.10;78.10
20568;DHT22;10442;49.932;11.592;2022-11-15T07:42:12;9.40;78.00
20568;DHT22;10442;49.932;11.592;2022-11-15T07:45:17;9.60;78.60
20568;DHT22;10442;49.932;11.592;2022-11-15T07:48:03;10.00;77.80
20568;DHT22;10442;49.932;11.592;2022-11-15T07:50:49;10.40;77.80
20568;DHT22;10442;49.932;11.592;2022-11-15T07:53:35;10.90;77.50
20568;DHT22;10442;49.932;11.592;2022-11-15T07:56:21;11.40;76.60
20568;DHT22;10442;49.932;11.592;2022-11-15T07:59:07;12.10;75.80
20568;DHT22;10442;49.932;11.592;2022-11-15T08:01:53;12.70;72.90
20568;DHT22;10442;49.932;11.592;2022-11-15T08:04:39;13.20;71.40
20568;DHT22;10442;49.932;11.592;2022-11-15T08:07:28;13.50;69.80
20568;DHT22;10442;49.932;11.592;2022-11-15T08:10:15;13.80;68.00
20568;DHT22;10442;49.932;11.592;2022-11-15T08:13:10;13.80;66.40
20568;DHT22;10442;49.932;11.592;2022-11-15T08:16:00;13.80;66.00
20568;DHT22;10442;49.932;11.592;2022-11-15T08:18:47;13.70;65.70
20568;DHT22;10442;49.932;11.592;2022-11-15T08:21:32;13.50;65.80
20568;DHT22;10442;49.932;11.592;2022-11-15T08:24:19;13.30;66.00
20568;DHT22;10442;49.932;11.592;2022-11-15T08:27:06;13.20;66.20
20568;DHT22;10442;49.932;11.592;2022-11-15T08:30:00;13.00;66.20
20568;DHT22;10442;49.932;11.592;2022-11-15T08:32:48;12.80;66.60
20568;DHT22;10442;49.932;11.592;2022-11-15T08:35:34;12.70;66.90
20568;DHT22;10442;49.932;11.592;2022-11-15T08:38:20;12.60;67.20
20568;DHT22;10442;49.932;11.592;2022-11-15T08:41:10;12.50;67.10
20568;DHT22;10442;49.932;11.592;2022-11-15T08:43:57;12.40;67.50
20568;DHT22;10442;49.932;11.592;2022-11-15T08:46:47;12.30;67.90
20568;DHT22;10442;49.932;11.592;2022-11-15T08:49:34;12.20;68.20
20568;DHT22;10442;49.932;11.592;2022-11-15T08:52:20;12.20;68.40
20568;DHT22;10442;49.932;11.592;2022-11-15T08:55:06;12.20;68.40
20568;DHT22;10442;49.932;11.592;2022-11-15T08:57:52;12.10;68.50
20568;DHT22;10442;49.932;11.592;2022-11-15T09:00:38;12.10;68.70
20568;DHT22;10442;49.932;11.592;2022-11-15T09:03:25;12.10;68.60
20568;DHT22;10442;49.932;11.592;2022-11-15T09:06:11;12.20;68.60
20568;DHT22;10442;49.932;11.592;2022-11-15T09:08:57;12.10;68.90
20568;DHT22;10442;49.932;11.592;2022-11-15T09:11:44;12.20;69.20
20568;DHT22;10442;49.932;11.592;2022-11-15T09:14:30;12.20;69.10
20568;DHT22;10442;49.932;11.592;2022-11-15T09:17:16;12.30;69.30
20568;DHT22;10442;49.932;11.592;2022-11-15T09:20:10;12.30;68.80
20568;DHT22;10442;49.932;11.592;2022-11-15T09:23:03;12.40;68.80
20568;DHT22;10442;49.932;11.592;2022-11-15T09:25:49;12.40;68.40
20568;DHT22;10442;49.932;11.592;2022-11-15T09:28:36;12.40;68.40
20568;DHT22;10442;49.932;11.592;2022-11-15T09:31:22;12.50;68.60
20568;DHT22;10442;49.932;11.592;2022-11-15T09:34:08;12.60;68.60
20568;DHT22;10442;49.932;11.592;2022-11-15T09:36:54;12.60;68.50
20568;DHT22;10442;49.932;11.592;2022-11-15T09:39:39;12.70;68.10
20568;DHT22;10442;49.932;11.592;2022-11-15T09:51:03;12.90;67.90
20568;DHT22;10442;49.932;11.592;2022-11-15T09:53:40;12.90;67.80
20568;DHT22;10442;49.932;11.592;2022-11-15T09:56:31;12.90;67.70
20568;DHT22;10442;49.932;11.592;2022-11-15T10:04:38;13.00;67.50
20568;DHT22;10442;49.932;11.592;2022-11-15T10:07:20;13.00;67.60
20568;DHT22;10442;49.932;11.592;2022-11-15T10:10:02;13.10;67.40
20568;DHT22;10442;49.932;11.592;2022-11-15T10:12:31;13.20;67.30
20568;DHT22;10442;49.932;11.592;2022-11-15T10:15:08;13.20;67.10
20568;DHT22;10442;49.932;11.592;2022-11-15T10:20:46;13.30;66.70
20568;DHT22;10442;49.932;11.592;2022-11-15T10:23:19;13.40;66.70
20568;DHT22;10442;49.932;11.592;2022-11-15T10:25:51;13.40;66.80
20568;DHT22;10442;49.932;11.592;2022-11-15T10:28:27;13.50;66.50
20568;DHT22;10442;49.932;11.592;2022-11-15T10:30:57;13.60;66.10
20568;DHT22;10442;49.932;11.592;2022-11-15T10:33:33;13.60;66.10
20568;DHT22;10442;49.932;11.592;2022-11-15T10:49:30;14.10;64.80
20568;DHT22;10442;49.932;11.592;2022-11-15T10:52:17;14.20;64.10
20568;DHT22;10442;49.932;11.592;2022-11-15T10:54:57;14.20;63.70
20568;DHT22;10442;49.932;11.592;2022-11-15T10:57:34;14.30;63.90
20568;DHT22;10442;49.932;11.592;2022-11-15T11:00:07;14.30;64.20
20568;DHT22;10442;49.932;11.592;2022-11-15T11:05:35;14.40;63.70
20568;DHT22;10442;49.932;11.592;2022-11-15T11:08:22;14.40;63.80
20568;DHT22;10442;49.932;11.592;2022-11-15T11:10:57;14.40;63.80
20568;DHT22;10442;49.932;11.592;2022-11-15T11:13:33;14.50;64.10
20568;DHT22;10442;49.932;11.592;2022-11-15T11:19:02;14.60;63.70
20568;DHT22;10442;49.932;11.592;2022-11-15T11:24:44;14.70;63.70
20568;DHT22;10442;49.932;11.592;2022-11-15T11:30:11;14.80;63.70
20568;DHT22;10442;49.932;11.592;2022-11-15T11:32:48;14.80;63.90
20568;DHT22;10442;49.932;11.592;2022-11-15T11:40:55;14.90;63.30
20568;DHT22;10442;49.932;11.592;2022-11-15T11:48:47;15.00;63.60
20568;DHT22;10442;49.932;11.592;2022-11-15T11:54:17;15.10;62.90
20568;DHT22;10442;49.932;11.592;2022-11-15T11:56:48;15.10;62.80
20568;DHT22;10442;49.932;11.592;2022-11-15T12:02:39;15.30;62.50
20568;DHT22;10442;49.932;11.592;2022-11-15T12:08:45;15.40;62.70
20568;DHT22;10442;49.932;11.592;2022-11-15T12:13:44;15.40;61.90
20568;DHT22;10442;49.932;11.592;2022-11-15T12:16:27;15.50;62.60
20568;DHT22;10442;49.932;11.592;2022-11-15T12:18:58;15.50;62.40
20568;DHT22;10442;49.932;11.592;2022-11-15T12:24:35;15.50;61.10
20568;DHT22;10442;49.932;11.592;2022-11-15T12:27:17;15.60;61.00
20568;DHT22;10442;49.932;11.592;2022-11-15T12:29:56;15.60;61.10
20568;DHT22;10442;49.932;11.592;2022-11-15T12:32:33;15.60;61.40
20568;DHT22;10442;49.932;11.592;2022-11-15T12:35:05;15.60;61.50
20568;DHT22;10442;49.932;11.592;2022-11-15T12:40:18;15.70;62.10
20568;DHT22;10442;49.932;11.592;2022-11-15T12:46:10;15.70;61.10
20568;DHT22;10442;49.932;11.592;2022-11-15T12:48:47;15.80;61.30
20568;DHT22;10442;49.932;11.592;2022-11-15T12:51:16;15.80;61.00
20568;DHT22;10442;49.932;11.592;2022-11-15T12:53:43;15.80;60.90
20568;DHT22;10442;49.932;11.592;2022-11-15T12:58:57;15.90;60.20
20568;DHT22;10442;49.932;11.592;2022-11-15T13:07:03;15.80;60.30
20568;DHT22;10442;49.932;11.592;2022-11-15T13:12:01;15.70;60.60
20568;DHT22;10442;49.932;11.592;2022-11-15T13:19:48;15.50;61.30
20568;DHT22;10442;49.932;11.592;2022-11-15T13:22:16;15.50;61.30
20568;DHT22;10442;49.932;11.592;2022-11-15T13:25:02;15.50;61.60
20568;DHT22;10442;49.932;11.592;2022-11-15T13:27:31;15.50;61.50
20568;DHT22;10442;49.932;11.592;2022-11-15T13:30:12;15.40;61.70
20568;DHT22;10442;49.932;11.592;2022-11-15T13:32:41;15.40;62.30
20568;DHT22;10442;49.932;11.592;2022-11-15T13:35:08;15.50;62.30
20568;DHT22;10442;49.932;11.592;2022-11-15T13:37:36;15.40;61.90
20568;DHT22;10442;49.932;11.592;2022-11-15T13:40:28;15.50;62.10
20568;DHT22;10442;49.932;11.592;2022-11-15T13:42:57;15.50;62.10
20568;DHT22;10442;49.932;11.592;2022-11-15T13:45:28;15.50;62.20
20568;DHT22;10442;49.932;11.592;2022-11-15T13:47:57;15.50;61.80
20568;DHT22;10442;49.932;11.592;2022-11-15T13:50:31;15.60;61.80
20568;DHT22;10442;49.932;11.592;2022-11-15T13:53:03;15.60;62.00
20568;DHT22;10442;49.932;11.592;2022-11-15T13:55:32;15.60;62.00
20568;DHT22;10442;49.932;11.592;2022-11-15T13:58:02;15.70;62.40
20568;DHT22;10442;49.932;11.592;2022-11-15T14:00:44;15.70;62.60
20568;DHT22;10442;49.932;11.592;2022-11-15T14:03:16;15.70;62.60
20568;DHT22;10442;49.932;11.592;2022-11-15T14:08:34;15.70;62.20
20568;DHT22;10442;49.932;11.592;2022-11-15T14:11:19;15.90;62.60
20568;DHT22;10442;49.932;11.592;2022-11-15T14:16:42;15.80;61.90
20568;DHT22;10442;49.932;11.592;2022-11-15T14:22:14;15.90;61.50
20568;DHT22;10442;49.932;11.592;2022-11-15T14:24:44;15.90;61.20
20568;DHT22;10442;49.932;11.592;2022-11-15T14:27:27;15.90;61.50
20568;DHT22;10442;49.932;11.592;2022-11-15T14:29:56;15.90;61.40
20568;DHT22;10442;49.932;11.592;2022-11-15T14:32:29;16.00;61.60
20568;DHT22;10442;49.932;11.592;2022-11-15T14:35:01;16.00;61.30
20568;DHT22;10442;49.932;11.592;2022-11-15T14:37:31;15.90;61.20
20568;DHT22;10442;49.932;11.592;2022-11-15T14:40:02;16.00;61.50
20568;DHT22;10442;49.932;11.592;2022-11-15T14:42:30;15.90;61.50
20568;DHT22;10442;49.932;11.592;2022-11-15T14:44:58;15.90;61.60
20568;DHT22;10442;49.932;11.592;2022-11-15T14:47:25;15.80;61.40
20568;DHT22;10442;49.932;11.592;2022-11-15T14:49:53;15.80;61.50
20568;DHT22;10442;49.932;11.592;2022-11-15T14:52:31;15.70;61.40
20568;DHT22;10442;49.932;11.592;2022-11-15T14:55:10;15.60;61.40
20568;DHT22;10442;49.932;11.592;2022-11-15T14:57:38;15.50;61.60
20568;DHT22;10442;49.932;11.592;2022-11-15T15:00:06;15.50;61.60
20568;DHT22;10442;49.932;11.592;2022-11-15T15:02:39;15.50;61.70
20568;DHT22;10442;49.932;11.592;2022-11-15T15:05:31;15.40;61.90
20568;DHT22;10442;49.932;11.592;2022-11-15T15:07:59;15.40;62.00
20568;DHT22;10442;49.932;11.592;2022-11-15T15:10:34;15.40;62.10
20568;DHT22;10442;49.932;11.592;2022-11-15T15:13:22;15.30;62.10
20568;DHT22;10442;49.932;11.592;2022-11-15T15:15:51;15.30;62.40
20568;DHT22;10442;49.932;11.592;2022-11-15T15:18:19;15.20;62.60
20568;DHT22;10442;49.932;11.592;2022-11-15T15:20:57;15.20;62.60
20568;DHT22;10442;49.932;11.592;2022-11-15T15:23:27;15.10;62.50
20568;DHT22;10442;49.932;11.592;2022-11-15T15:25:58;15.00;62.60
20568;DHT22;10442;49.932;11.592;2022-11-15T15:28:25;14.90;62.60
20568;DHT22;10442;49.932;11.592;2022-11-15T15:31:01;14.90;62.80
20568;DHT22;10442;49.932;11.592;2022-11-15T15:33:28;14.80;62.90
20568;DHT22;10442;49.932;11.592;2022-11-15T15:35:56;14.70;63.10
20568;DHT22;10442;49.932;11.592;2022-11-15T15:38:23;14.60;63.20
20568;DHT22;10442;49.932;11.592;2022-11-15T15:40:50;14.60;63.30
20568;DHT22;10442;49.932;11.592;2022-11-15T15:43:18;14.50;63.60
20568;DHT22;10442;49.932;11.592;2022-11-15T15:45:45;14.40;63.80
20568;DHT22;10442;49.932;11.592;2022-11-15T15:48:14;14.30;63.90
20568;DHT22;10442;49.932;11.592;2022-11-15T15:50:42;14.20;64.00
20568;DHT22;10442;49.932;11.592;2022-11-15T15:53:11;14.20;64.50
20568;DHT22;10442;49.932;11.592;2022-11-15T15:55:39;14.10;64.60
20568;DHT22;10442;49.932;11.592;2022-11-15T15:58:07;14.00;64.60
20568;DHT22;10442;49.932;11.592;2022-11-15T16:00:36;13.90;64.70
20568;DHT22;10442;49.932;11.592;2022-11-15T16:03:04;13.80;65.00
20568;DHT22;10442;49.932;11.592;2022-11-15T16:05:32;13.70;65.10
20568;DHT22;10442;49.932;11.592;2022-11-15T16:07:59;13.60;65.30
20568;DHT22;10442;49.932;11.592;2022-11-15T16:10:29;13.50;65.40
20568;DHT22;10442;49.932;11.592;2022-11-15T16:12:58;13.40;65.70
20568;DHT22;10442;49.932;11.592;2022-11-15T16:15:27;13.30;65.80
20568;DHT22;10442;49.932;11.592;2022-11-15T16:17:58;13.20;66.10
20568;DHT22;10442;49.932;11.592;2022-11-15T16:22:59;13.10;66.60
20568;DHT22;10442;49.932;11.592;2022-11-15T16:25:41;13.00;66.60
20568;DHT22;10442;49.932;11.592;2022-11-15T16:28:18;12.90;66.90
20568;DHT22;10442;49.932;11.592;2022-11-15T16:30:46;12.90;67.50
20568;DHT22;10442;49.932;11.592;2022-11-15T16:33:21;12.80;67.30
20568;DHT22;10442;49.932;11.592;2022-11-15T16:35:49;12.70;67.30
20568;DHT22;10442;49.932;11.592;2022-11-15T16:38:17;12.70;67.60
20568;DHT22;10442;49.932;11.592;2022-11-15T16:40:45;12.60;67.80
20568;DHT22;10442;49.932;11.592;2022-11-15T16:43:12;12.60;67.90
20568;DHT22;10442;49.932;11.592;2022-11-15T16:45:40;12.50;68.10
20568;DHT22;10442;49.932;11.592;2022-11-15T16:48:23;12.50;68.10
20568;DHT22;10442;49.932;11.592;2022-11-15T16:50:58;12.40;68.40
20568;DHT22;10442;49.932;11.592;2022-11-15T16:53:26;12.30;68.30
20568;DHT22;10442;49.932;11.592;2022-11-15T16:55:55;12.30;68.30
20568;DHT22;10442;49.932;11.592;2022-11-15T16:58:23;12.20;68.30
20568;DHT22;10442;49.932;11.592;2022-11-15T17:00:54;12.20;68.80
20568;DHT22;10442;49.932;11.592;2022-11-15T17:03:23;12.10;68.70
20568;DHT22;10442;49.932;11.592;2022-11-15T17:05:51;12.10;68.80
20568;DHT22;10442;49.932;11.592;2022-11-15T17:08:19;12.00;68.70
20568;DHT22;10442;49.932;11.592;2022-11-15T17:10:48;12.00;68.60
20568;DHT22;10442;49.932;11.592;2022-11-15T17:13:15;11.90;68.60
20568;DHT22;10442;49.932;11.592;2022-11-15T17:15:43;11.80;68.60
20568;DHT22;10442;49.932;11.592;2022-11-15T17:18:11;11.80;68.70
20568;DHT22;10442;49.932;11.592;2022-11-15T17:20:39;11.70;68.80
20568;DHT22;10442;49.932;11.592;2022-11-15T17:23:13;11.60;69.00
20568;DHT22;10442;49.932;11.592;2022-11-15T17:25:41;11.60;69.50
20568;DHT22;10442;49.932;11.592;2022-11-15T17:28:09;11.60;69.40
20568;DHT22;10442;49.932;11.592;2022-11-15T17:30:40;11.50;69.50
20568;DHT22;10442;49.932;11.592;2022-11-15T17:33:09;11.50;69.60
20568;DHT22;10442;49.932;11.592;2022-11-15T17:35:36;11.50;69.80
20568;DHT22;10442;49.932;11.592;2022-11-15T17:38:04;11.40;69.90
20568;DHT22;10442;49.932;11.592;2022-11-15T17:40:31;11.50;70.00
20568;DHT22;10442;49.932;11.592;2022-11-15T17:42:59;11.40;70.20
20568;DHT22;10442;49.932;11.592;2022-11-15T17:45:26;11.40;70.30
20568;DHT22;10442;49.932;11.592;2022-11-15T17:47:54;11.40;70.40
20568;DHT22;10442;49.932;11.592;2022-11-15T17:50:21;11.40;70.60
20568;DHT22;10442;49.932;11.592;2022-11-15T17:52:49;11.30;70.80
20568;DHT22;10442;49.932;11.592;2022-11-15T17:55:16;11.30;71.00
20568;DHT22;10442;49.932;11.592;2022-11-15T17:57:45;11.30;70.90
20568;DHT22;10442;49.932;11.592;2022-11-15T18:00:12;11.30;70.90
20568;DHT22;10442;49.932;11.592;2022-11-15T18:02:40;11.30;70.80
20568;DHT22;10442;49.932;11.592;2022-11-15T18:05:08;11.30;70.80
20568;DHT22;10442;49.932;11.592;2022-11-15T18:07:35;11.30;70.80
20568;DHT22;10442;49.932;11.592;2022-11-15T18:10:03;11.30;70.90
20568;DHT22;10442;49.932;11.592;2022-11-15T18:12:31;11.30;71.00
20568;DHT22;10442;49.932;11.592;2022-11-15T18:14:58;11.30;71.00
20568;DHT22;10442;49.932;11.592;2022-11-15T18:17:26;11.30;71.70
20568;DHT22;10442;49.932;11.592;2022-11-15T18:19:54;11.30;70.90
20568;DHT22;10442;49.932;11.592;2022-11-15T18:22:21;11.30;70.90
20568;DHT22;10442;49.932;11.592;2022-11-15T18:24:49;11.30;70.80
20568;DHT22;10442;49.932;11.592;2022-11-15T18:27:16;11.30;70.90
20568;DHT22;10442;49.932;11.592;2022-11-15T18:29:44;11.30;70.90
20568;DHT22;10442;49.932;11.592;2022-11-15T18:32:11;11.30;71.10
20568;DHT22;10442;49.932;11.592;2022-11-15T18:34:41;11.30;71.20
20568;DHT22;10442;49.932;11.592;2022-11-15T18:37:08;11.30;71.10
20568;DHT22;10442;49.932;11.592;2022-11-15T18:39:35;11.30;71.10
20568;DHT22;10442;49.932;11.592;2022-11-15T18:42:04;11.30;71.00